sensor_id;sensor_type;location;lat;lon;timestamp;P1;durP1;ratioP1;P2;durP2;ratioP2
21843;SDS011;11084;52.482;9.108;2023-04-06T00:02:25;3.00;;;2.37;;
21843;SDS011;11084;52.482;9.108;2023-04-06T00:04:51;3.70;;;2.03;;
21843;SDS011;11084;52.482;9.108;2023-04-06T00:07:17;3.50;;;3.03;;
21843;SDS011;11084;52.482;9.108;2023-04-06T00:09:43;4.77;;;2.07;;
21843;SDS011;11084;52.482;9.108;2023-04-06T00:12:10;3.73;;;2.90;;
21843;SDS011;11084;52.482;9.108;2023-04-06T00:14:36;2.87;;;1.70;;
21843;SDS011;11084;52.482;9.108;2023-04-06T00:17:02;4.87;;;2.93;;
21843;SDS011;11084;52.482;9.108;2023-04-06T00:19:28;4.20;;;1.87;;
21843;SDS011;11084;52.482;9.108;2023-04-06T00:21:54;3.37;;;2.43;;
21843;SDS011;11084;52.482;9.108;2023-04-06T00:24:20;4.13;;;2.77;;
21843;SDS011;11084;52.482;9.108;2023-04-06T00:26:46;5.27;;;3.17;;
21843;SDS011;11084;52.482;9.108;2023-04-06T00:29:12;11.57;;;2.80;;
21843;SDS011;11084;52.482;9.108;2023-04-06T00:31:38;5.97;;;3.57;;
21843;SDS011;11084;52.482;9.108;2023-04-06T00:34:05;3.93;;;2.40;;
21843;SDS011;11084;52.482;9.108;2023-04-06T00:36:31;7.33;;;2.50;;
21843;SDS011;11084;52.482;9.108;2023-04-06T00:38:57;4.83;;;3.20;;
21843;SDS011;11084;52.482;9.108;2023-04-06T00:41:23;3.13;;;2.13;;
21843;SDS011;11084;52.482;9.108;2023-04-06T00:43:50;3.03;;;2.50;;
21843;SDS011;11084;52.482;9.108;2023-04-06T00:46:16;2.23;;;2.03;;
21843;SDS011;11084;52.482;9.108;2023-04-06T00:48:42;2.40;;;2.20;;
21843;SDS011;11084;52.482;9.108;2023-04-06T00:51:09;3.53;;;2.40;;
21843;SDS011;11084;52.482;9.108;2023-04-06T00:53:35;3.17;;;2.30;;
21843;SDS011;11084;52.482;9.108;2023-04-06T00:56:01;3.40;;;2.60;;
21843;SDS011;11084;52.482;9.108;2023-04-06T00:58:35;2.33;;;1.93;;
21843;SDS011;11084;52.482;9.108;2023-04-06T01:01:06;2.60;;;2.03;;
21843;SDS011;11084;52.482;9.108;2023-04-06T01:03:33;6.67;;;2.53;;
21843;SDS011;11084;52.482;9.108;2023-04-06T01:06:01;1.97;;;1.83;;
21843;SDS011;11084;52.482;9.108;2023-04-06T01:08:34;4.63;;;2.80;;
21843;SDS011;11084;52.482;9.108;2023-04-06T01:11:15;2.60;;;2.33;;
21843;SDS011;11084;52.482;9.108;2023-04-06T01:13:42;3.60;;;2.23;;
21843;SDS011;11084;52.482;9.108;2023-04-06T01:16:27;2.37;;;1.83;;
21843;SDS011;11084;52.482;9.108;2023-04-06T01:19:14;2.20;;;1.73;;
21843;SDS011;11084;52.482;9.108;2023-04-06T01:21:45;2.50;;;2.30;;
21843;SDS011;11084;52.482;9.108;2023-04-06T01:24:35;6.77;;;1.63;;
21843;SDS011;11084;52.482;9.108;2023-04-06T01:27:25;5.03;;;3.07;;
21843;SDS011;11084;52.482;9.108;2023-04-06T01:29:56;7.80;;;3.90;;
21843;SDS011;11084;52.482;9.108;2023-04-06T01:32:45;2.07;;;1.73;;
21843;SDS011;11084;52.482;9.108;2023-04-06T01:35:14;2.53;;;1.90;;
21843;SDS011;11084;52.482;9.108;2023-04-06T01:37:51;3.63;;;2.40;;
21843;SDS011;11084;52.482;9.108;2023-04-06T01:40:24;3.20;;;2.27;;
21843;SDS011;11084;52.482;9.108;2023-04-06T01:42:51;5.00;;;2.13;;
21843;SDS011;11084;52.482;9.108;2023-04-06T01:45:26;2.63;;;2.43;;
21843;SDS011;11084;52.482;9.108;2023-04-06T01:47:58;4.17;;;2.00;;
21843;SDS011;11084;52.482;9.108;2023-04-06T01:50:27;3.27;;;2.40;;
21843;SDS011;11084;52.482;9.108;2023-04-06T01:52:53;2.53;;;2.23;;
21843;SDS011;11084;52.482;9.108;2023-04-06T01:55:22;2.67;;;2.00;;
21843;SDS011;11084;52.482;9.108;2023-04-06T01:58:09;2.53;;;1.53;;
21843;SDS011;11084;52.482;9.108;2023-04-06T02:00:37;2.43;;;2.13;;
21843;SDS011;11084;52.482;9.108;2023-04-06T02:03:04;19.50;;;3.70;;
21843;SDS011;11084;52.482;9.108;2023-04-06T02:05:32;1.40;;;1.30;;
21843;SDS011;11084;52.482;9.108;2023-04-06T02:08:07;1.70;;;1.60;;
21843;SDS011;11084;52.482;9.108;2023-04-06T02:10:36;3.00;;;2.10;;
21843;SDS011;11084;52.482;9.108;2023-04-06T02:13:11;3.20;;;2.70;;
21843;SDS011;11084;52.482;9.108;2023-04-06T02:15:42;2.00;;;1.83;;
21843;SDS011;11084;52.482;9.108;2023-04-06T02:18:09;2.33;;;1.53;;
21843;SDS011;11084;52.482;9.108;2023-04-06T02:20:35;3.33;;;2.70;;
21843;SDS011;11084;52.482;9.108;2023-04-06T02:23:02;2.33;;;2.03;;
21843;SDS011;11084;52.482;9.108;2023-04-06T02:25:28;2.63;;;2.40;;
21843;SDS011;11084;52.482;9.108;2023-04-06T02:27:54;2.97;;;2.10;;
21843;SDS011;11084;52.482;9.108;2023-04-06T02:30:21;3.07;;;2.00;;
21843;SDS011;11084;52.482;9.108;2023-04-06T02:32:48;3.23;;;2.27;;
21843;SDS011;11084;52.482;9.108;2023-04-06T02:35:15;2.57;;;1.90;;
21843;SDS011;11084;52.482;9.108;2023-04-06T02:37:42;3.20;;;2.10;;
21843;SDS011;11084;52.482;9.108;2023-04-06T02:40:09;4.63;;;2.47;;
21843;SDS011;11084;52.482;9.108;2023-04-06T02:42:36;1.97;;;1.83;;
21843;SDS011;11084;52.482;9.108;2023-04-06T02:45:03;3.77;;;2.73;;
21843;SDS011;11084;52.482;9.108;2023-04-06T02:47:36;3.67;;;2.30;;
21843;SDS011;11084;52.482;9.108;2023-04-06T02:50:02;5.70;;;2.60;;
21843;SDS011;11084;52.482;9.108;2023-04-06T02:52:32;1.80;;;1.70;;
21843;SDS011;11084;52.482;9.108;2023-04-06T02:54:58;2.77;;;2.10;;
21843;SDS011;11084;52.482;9.108;2023-04-06T02:57:28;3.03;;;2.20;;
21843;SDS011;11084;52.482;9.108;2023-04-06T02:59:55;3.97;;;2.27;;
21843;SDS011;11084;52.482;9.108;2023-04-06T03:02:28;2.10;;;1.63;;
21843;SDS011;11084;52.482;9.108;2023-04-06T03:05:03;2.53;;;2.30;;
21843;SDS011;11084;52.482;9.108;2023-04-06T03:07:34;2.73;;;2.37;;
21843;SDS011;11084;52.482;9.108;2023-04-06T03:10:01;3.07;;;2.17;;
21843;SDS011;11084;52.482;9.108;2023-04-06T03:12:29;3.43;;;2.00;;
21843;SDS011;11084;52.482;9.108;2023-04-06T03:15:14;3.27;;;2.20;;
21843;SDS011;11084;52.482;9.108;2023-04-06T03:17:44;3.87;;;1.63;;
21843;SDS011;11084;52.482;9.108;2023-04-06T03:20:23;5.10;;;2.27;;
21843;SDS011;11084;52.482;9.108;2023-04-06T03:22:49;3.90;;;2.27;;
21843;SDS011;11084;52.482;9.108;2023-04-06T03:25:21;3.53;;;2.20;;
21843;SDS011;11084;52.482;9.108;2023-04-06T03:27:47;2.80;;;2.13;;
21843;SDS011;11084;52.482;9.108;2023-04-06T03:30:17;6.83;;;3.20;;
21843;SDS011;11084;52.482;9.108;2023-04-06T03:32:43;5.97;;;2.60;;
21843;SDS011;11084;52.482;9.108;2023-04-06T03:35:10;2.10;;;1.50;;
21843;SDS011;11084;52.482;9.108;2023-04-06T03:37:36;3.13;;;1.67;;
21843;SDS011;11084;52.482;9.108;2023-04-06T03:40:04;4.07;;;2.50;;
21843;SDS011;11084;52.482;9.108;2023-04-06T03:42:30;3.20;;;2.40;;
21843;SDS011;11084;52.482;9.108;2023-04-06T03:45:03;4.53;;;2.57;;
21843;SDS011;11084;52.482;9.108;2023-04-06T03:47:30;8.83;;;3.00;;
21843;SDS011;11084;52.482;9.108;2023-04-06T03:50:00;3.23;;;2.37;;
21843;SDS011;11084;52.482;9.108;2023-04-06T03:52:30;2.37;;;2.17;;
21843;SDS011;11084;52.482;9.108;2023-04-06T03:54:56;2.37;;;1.83;;
21843;SDS011;11084;52.482;9.108;2023-04-06T03:57:22;2.30;;;2.03;;
21843;SDS011;11084;52.482;9.108;2023-04-06T03:59:48;5.87;;;2.37;;
21843;SDS011;11084;52.482;9.108;2023-04-06T04:02:15;4.63;;;2.07;;
21843;SDS011;11084;52.482;9.108;2023-04-06T04:04:41;2.77;;;2.17;;
21843;SDS011;11084;52.482;9.108;2023-04-06T04:07:07;3.30;;;1.67;;
21843;SDS011;11084;52.482;9.108;2023-04-06T04:09:33;3.90;;;2.00;;
21843;SDS011;11084;52.482;9.108;2023-04-06T04:12:00;3.80;;;2.13;;
21843;SDS011;11084;52.482;9.108;2023-04-06T04:14:28;5.50;;;2.57;;
21843;SDS011;11084;52.482;9.108;2023-04-06T04:16:54;1.77;;;1.67;;
21843;SDS011;11084;52.482;9.108;2023-04-06T04:19:20;3.97;;;2.53;;
21843;SDS011;11084;52.482;9.108;2023-04-06T04:21:46;3.13;;;2.23;;
21843;SDS011;11084;52.482;9.108;2023-04-06T04:24:16;2.70;;;2.40;;
21843;SDS011;11084;52.482;9.108;2023-04-06T04:26:43;2.33;;;2.13;;
21843;SDS011;11084;52.482;9.108;2023-04-06T04:29:10;5.57;;;2.43;;
21843;SDS011;11084;52.482;9.108;2023-04-06T04:31:37;4.83;;;2.40;;
21843;SDS011;11084;52.482;9.108;2023-04-06T04:34:09;5.80;;;2.60;;
21843;SDS011;11084;52.482;9.108;2023-04-06T04:36:35;5.07;;;3.00;;
21843;SDS011;11084;52.482;9.108;2023-04-06T04:39:05;2.97;;;2.30;;
21843;SDS011;11084;52.482;9.108;2023-04-06T04:41:36;3.23;;;2.60;;
21843;SDS011;11084;52.482;9.108;2023-04-06T04:44:06;3.50;;;1.90;;
21843;SDS011;11084;52.482;9.108;2023-04-06T04:46:33;7.37;;;1.77;;
21843;SDS011;11084;52.482;9.108;2023-04-06T04:48:59;4.73;;;2.70;;
21843;SDS011;11084;52.482;9.108;2023-04-06T04:51:25;4.73;;;2.30;;
21843;SDS011;11084;52.482;9.108;2023-04-06T04:54:12;3.07;;;2.53;;
21843;SDS011;11084;52.482;9.108;2023-04-06T04:56:39;2.23;;;1.60;;
21843;SDS011;11084;52.482;9.108;2023-04-06T04:59:19;3.53;;;2.60;;
21843;SDS011;11084;52.482;9.108;2023-04-06T05:01:53;3.20;;;2.43;;
21843;SDS011;11084;52.482;9.108;2023-04-06T05:04:20;2.53;;;2.20;;
21843;SDS011;11084;52.482;9.108;2023-04-06T05:06:47;3.97;;;2.57;;
21843;SDS011;11084;52.482;9.108;2023-04-06T05:09:13;5.20;;;2.47;;
21843;SDS011;11084;52.482;9.108;2023-04-06T05:11:41;2.63;;;2.00;;
21843;SDS011;11084;52.482;9.108;2023-04-06T05:14:07;7.17;;;2.13;;
21843;SDS011;11084;52.482;9.108;2023-04-06T05:16:35;5.00;;;2.40;;
21843;SDS011;11084;52.482;9.108;2023-04-06T05:19:02;2.43;;;2.23;;
21843;SDS011;11084;52.482;9.108;2023-04-06T05:21:37;2.83;;;2.60;;
21843;SDS011;11084;52.482;9.108;2023-04-06T05:24:05;6.90;;;2.17;;
21843;SDS011;11084;52.482;9.108;2023-04-06T05:26:33;7.10;;;3.00;;
21843;SDS011;11084;52.482;9.108;2023-04-06T05:29:05;4.43;;;3.20;;
21843;SDS011;11084;52.482;9.108;2023-04-06T05:31:34;3.37;;;2.77;;
21843;SDS011;11084;52.482;9.108;2023-04-06T05:34:00;4.47;;;2.60;;
21843;SDS011;11084;52.482;9.108;2023-04-06T05:36:31;4.63;;;2.77;;
21843;SDS011;11084;52.482;9.108;2023-04-06T05:39:01;5.70;;;3.60;;
21843;SDS011;11084;52.482;9.108;2023-04-06T05:41:33;6.93;;;3.57;;
21843;SDS011;11084;52.482;9.108;2023-04-06T05:44:00;6.20;;;2.97;;
21843;SDS011;11084;52.482;9.108;2023-04-06T05:46:27;6.93;;;3.63;;
21843;SDS011;11084;52.482;9.108;2023-04-06T05:48:56;5.70;;;2.97;;
21843;SDS011;11084;52.482;9.108;2023-04-06T05:51:26;3.60;;;2.70;;
21843;SDS011;11084;52.482;9.108;2023-04-06T05:53:52;5.70;;;3.70;;
21843;SDS011;11084;52.482;9.108;2023-04-06T05:56:19;4.47;;;2.97;;
21843;SDS011;11084;52.482;9.108;2023-04-06T05:58:45;8.80;;;3.57;;
21843;SDS011;11084;52.482;9.108;2023-04-06T06:01:16;4.10;;;3.07;;
21843;SDS011;11084;52.482;9.108;2023-04-06T06:03:45;4.37;;;3.40;;
21843;SDS011;11084;52.482;9.108;2023-04-06T06:06:12;9.17;;;3.57;;
21843;SDS011;11084;52.482;9.108;2023-04-06T06:08:49;4.23;;;3.10;;
21843;SDS011;11084;52.482;9.108;2023-04-06T06:11:17;4.87;;;2.77;;
21843;SDS011;11084;52.482;9.108;2023-04-06T06:13:43;4.23;;;3.03;;
21843;SDS011;11084;52.482;9.108;2023-04-06T06:16:09;4.77;;;3.13;;
21843;SDS011;11084;52.482;9.108;2023-04-06T06:18:41;6.67;;;3.50;;
21843;SDS011;11084;52.482;9.108;2023-04-06T06:21:07;15.53;;;3.73;;
21843;SDS011;11084;52.482;9.108;2023-04-06T06:23:34;5.50;;;3.60;;
21843;SDS011;11084;52.482;9.108;2023-04-06T06:26:00;7.40;;;3.57;;
21843;SDS011;11084;52.482;9.108;2023-04-06T06:28:28;5.83;;;3.67;;
21843;SDS011;11084;52.482;9.108;2023-04-06T06:30:55;4.27;;;3.27;;
21843;SDS011;11084;52.482;9.108;2023-04-06T06:33:23;7.03;;;3.40;;
21843;SDS011;11084;52.482;9.108;2023-04-06T06:35:52;11.47;;;3.77;;
21843;SDS011;11084;52.482;9.108;2023-04-06T06:38:18;7.07;;;3.70;;
21843;SDS011;11084;52.482;9.108;2023-04-06T06:40:45;6.87;;;3.50;;
21843;SDS011;11084;52.482;9.108;2023-04-06T06:43:12;6.07;;;3.00;;
21843;SDS011;11084;52.482;9.108;2023-04-06T06:45:49;5.43;;;3.53;;
21843;SDS011;11084;52.482;9.108;2023-04-06T06:48:15;5.77;;;3.20;;
21843;SDS011;11084;52.482;9.108;2023-04-06T06:50:44;5.03;;;3.47;;
21843;SDS011;11084;52.482;9.108;2023-04-06T06:53:11;12.13;;;3.23;;
21843;SDS011;11084;52.482;9.108;2023-04-06T06:55:38;9.00;;;3.27;;
21843;SDS011;11084;52.482;9.108;2023-04-06T06:58:04;10.47;;;3.50;;
21843;SDS011;11084;52.482;9.108;2023-04-06T07:00:31;6.83;;;3.10;;
21843;SDS011;11084;52.482;9.108;2023-04-06T07:02:57;5.43;;;3.33;;
21843;SDS011;11084;52.482;9.108;2023-04-06T07:05:24;4.77;;;3.10;;
21843;SDS011;11084;52.482;9.108;2023-04-06T07:07:50;6.23;;;3.30;;
21843;SDS011;11084;52.482;9.108;2023-04-06T07:10:16;4.20;;;3.33;;
21843;SDS011;11084;52.482;9.108;2023-04-06T07:12:42;5.27;;;3.50;;
21843;SDS011;11084;52.482;9.108;2023-04-06T07:15:08;8.00;;;3.40;;
21843;SDS011;11084;52.482;9.108;2023-04-06T07:17:35;5.20;;;3.80;;
21843;SDS011;11084;52.482;9.108;2023-04-06T07:20:01;4.50;;;3.13;;
21843;SDS011;11084;52.482;9.108;2023-04-06T07:22:27;4.87;;;3.27;;
21843;SDS011;11084;52.482;9.108;2023-04-06T07:24:54;4.67;;;2.93;;
21843;SDS011;11084;52.482;9.108;2023-04-06T07:27:20;10.27;;;3.03;;
21843;SDS011;11084;52.482;9.108;2023-04-06T07:29:46;4.87;;;3.50;;
21843;SDS011;11084;52.482;9.108;2023-04-06T07:32:12;4.60;;;3.50;;
21843;SDS011;11084;52.482;9.108;2023-04-06T07:34:39;6.10;;;3.47;;
21843;SDS011;11084;52.482;9.108;2023-04-06T07:37:05;3.07;;;2.70;;
21843;SDS011;11084;52.482;9.108;2023-04-06T07:39:33;5.23;;;3.00;;
21843;SDS011;11084;52.482;9.108;2023-04-06T07:42:00;8.67;;;2.90;;
21843;SDS011;11084;52.482;9.108;2023-04-06T07:44:26;3.27;;;2.47;;
21843;SDS011;11084;52.482;9.108;2023-04-06T07:46:52;7.93;;;3.00;;
21843;SDS011;11084;52.482;9.108;2023-04-06T07:49:21;5.40;;;3.13;;
21843;SDS011;11084;52.482;9.108;2023-04-06T07:51:49;5.37;;;3.17;;
21843;SDS011;11084;52.482;9.108;2023-04-06T07:54:15;5.43;;;2.83;;
21843;SDS011;11084;52.482;9.108;2023-04-06T07:56:41;5.73;;;2.37;;
21843;SDS011;11084;52.482;9.108;2023-04-06T07:59:07;5.60;;;3.13;;
21843;SDS011;11084;52.482;9.108;2023-04-06T08:01:33;5.47;;;3.50;;
21843;SDS011;11084;52.482;9.108;2023-04-06T08:03:59;4.23;;;2.70;;
21843;SDS011;11084;52.482;9.108;2023-04-06T08:06:27;5.67;;;3.03;;
21843;SDS011;11084;52.482;9.108;2023-04-06T08:08:54;5.73;;;2.90;;
21843;SDS011;11084;52.482;9.108;2023-04-06T08:11:20;4.70;;;3.07;;
21843;SDS011;11084;52.482;9.108;2023-04-06T08:13:46;4.63;;;3.00;;
21843;SDS011;11084;52.482;9.108;2023-04-06T08:16:12;4.37;;;2.97;;
21843;SDS011;11084;52.482;9.108;2023-04-06T08:18:39;6.00;;;2.57;;
21843;SDS011;11084;52.482;9.108;2023-04-06T08:21:05;4.57;;;3.00;;
21843;SDS011;11084;52.482;9.108;2023-04-06T08:23:31;5.43;;;3.33;;
21843;SDS011;11084;52.482;9.108;2023-04-06T08:25:57;4.87;;;2.80;;
21843;SDS011;11084;52.482;9.108;2023-04-06T08:28:23;7.23;;;3.20;;
21843;SDS011;11084;52.482;9.108;2023-04-06T08:30:50;6.77;;;3.20;;
21843;SDS011;11084;52.482;9.108;2023-04-06T08:33:16;5.53;;;2.83;;
21843;SDS011;11084;52.482;9.108;2023-04-06T08:35:42;6.10;;;3.00;;
21843;SDS011;11084;52.482;9.108;2023-04-06T08:38:08;5.00;;;3.13;;
21843;SDS011;11084;52.482;9.108;2023-04-06T08:40:38;4.97;;;3.17;;
21843;SDS011;11084;52.482;9.108;2023-04-06T08:43:06;6.73;;;3.13;;
21843;SDS011;11084;52.482;9.108;2023-04-06T08:45:37;4.83;;;2.93;;
21843;SDS011;11084;52.482;9.108;2023-04-06T08:48:05;4.07;;;3.23;;
21843;SDS011;11084;52.482;9.108;2023-04-06T08:50:32;3.47;;;3.00;;
21843;SDS011;11084;52.482;9.108;2023-04-06T08:52:59;4.77;;;3.30;;
21843;SDS011;11084;52.482;9.108;2023-04-06T08:55:26;6.43;;;3.17;;
21843;SDS011;11084;52.482;9.108;2023-04-06T08:57:53;5.47;;;3.10;;
21843;SDS011;11084;52.482;9.108;2023-04-06T09:00:20;7.43;;;3.53;;
21843;SDS011;11084;52.482;9.108;2023-04-06T09:02:48;8.93;;;3.80;;
21843;SDS011;11084;52.482;9.108;2023-04-06T09:05:15;5.47;;;3.17;;
21843;SDS011;11084;52.482;9.108;2023-04-06T09:07:41;6.73;;;3.47;;
21843;SDS011;11084;52.482;9.108;2023-04-06T09:10:08;5.63;;;3.07;;
21843;SDS011;11084;52.482;9.108;2023-04-06T09:12:34;5.47;;;3.17;;
21843;SDS011;11084;52.482;9.108;2023-04-06T09:15:01;5.40;;;2.87;;
21843;SDS011;11084;52.482;9.108;2023-04-06T09:17:28;4.83;;;3.37;;
21843;SDS011;11084;52.482;9.108;2023-04-06T09:19:58;4.50;;;2.93;;
21843;SDS011;11084;52.482;9.108;2023-04-06T09:22:35;5.53;;;3.03;;
21843;SDS011;11084;52.482;9.108;2023-04-06T09:25:02;5.20;;;3.10;;
21843;SDS011;11084;52.482;9.108;2023-04-06T09:27:30;5.10;;;3.30;;
21843;SDS011;11084;52.482;9.108;2023-04-06T09:30:02;9.37;;;3.60;;
21843;SDS011;11084;52.482;9.108;2023-04-06T09:32:30;6.27;;;3.03;;
21843;SDS011;11084;52.482;9.108;2023-04-06T09:35:07;6.37;;;3.27;;
21843;SDS011;11084;52.482;9.108;2023-04-06T09:37:34;4.83;;;3.17;;
21843;SDS011;11084;52.482;9.108;2023-04-06T09:40:04;5.87;;;2.93;;
21843;SDS011;11084;52.482;9.108;2023-04-06T09:42:32;5.43;;;3.20;;
21843;SDS011;11084;52.482;9.108;2023-04-06T09:45:00;7.70;;;3.63;;
21843;SDS011;11084;52.482;9.108;2023-04-06T09:47:30;5.00;;;3.50;;
21843;SDS011;11084;52.482;9.108;2023-04-06T09:49:59;6.30;;;3.37;;
21843;SDS011;11084;52.482;9.108;2023-04-06T09:52:58;6.57;;;3.63;;
21843;SDS011;11084;52.482;9.108;2023-04-06T09:55:23;4.77;;;3.43;;
21843;SDS011;11084;52.482;9.108;2023-04-06T10:00:36;5.30;;;3.40;;
21843;SDS011;11084;52.482;9.108;2023-04-06T10:05:51;8.90;;;3.47;;
21843;SDS011;11084;52.482;9.108;2023-04-06T10:08:26;8.13;;;4.00;;
21843;SDS011;11084;52.482;9.108;2023-04-06T10:10:54;7.13;;;3.23;;
21843;SDS011;11084;52.482;9.108;2023-04-06T10:13:21;8.30;;;4.23;;
21843;SDS011;11084;52.482;9.108;2023-04-06T10:15:49;10.00;;;3.63;;
21843;SDS011;11084;52.482;9.108;2023-04-06T10:18:17;5.20;;;3.30;;
21843;SDS011;11084;52.482;9.108;2023-04-06T10:26:12;6.27;;;3.50;;
21843;SDS011;11084;52.482;9.108;2023-04-06T10:28:42;6.17;;;3.90;;
21843;SDS011;11084;52.482;9.108;2023-04-06T10:31:10;6.40;;;3.63;;
21843;SDS011;11084;52.482;9.108;2023-04-06T10:33:36;8.73;;;3.70;;
21843;SDS011;11084;52.482;9.108;2023-04-06T10:36:09;10.00;;;4.27;;
21843;SDS011;11084;52.482;9.108;2023-04-06T10:38:53;5.60;;;3.73;;
21843;SDS011;11084;52.482;9.108;2023-04-06T10:41:22;7.50;;;3.93;;
21843;SDS011;11084;52.482;9.108;2023-04-06T10:43:57;4.93;;;3.63;;
21843;SDS011;11084;52.482;9.108;2023-04-06T10:46:27;8.10;;;3.60;;
21843;SDS011;11084;52.482;9.108;2023-04-06T10:48:58;5.73;;;3.33;;
21843;SDS011;11084;52.482;9.108;2023-04-06T10:51:37;10.60;;;3.90;;
21843;SDS011;11084;52.482;9.108;2023-04-06T10:54:07;6.20;;;3.97;;
21843;SDS011;11084;52.482;9.108;2023-04-06T10:56:36;9.90;;;3.77;;
21843;SDS011;11084;52.482;9.108;2023-04-06T10:59:04;8.30;;;4.10;;
21843;SDS011;11084;52.482;9.108;2023-04-06T11:01:32;9.77;;;4.40;;
21843;SDS011;11084;52.482;9.108;2023-04-06T11:03:58;8.77;;;3.70;;
21843;SDS011;11084;52.482;9.108;2023-04-06T11:06:25;10.83;;;4.40;;
21843;SDS011;11084;52.482;9.108;2023-04-06T11:08:54;8.47;;;4.10;;
21843;SDS011;11084;52.482;9.108;2023-04-06T11:11:22;7.53;;;4.33;;
21843;SDS011;11084;52.482;9.108;2023-04-06T11:14:00;7.47;;;4.17;;
21843;SDS011;11084;52.482;9.108;2023-04-06T11:16:28;6.80;;;4.03;;
21843;SDS011;11084;52.482;9.108;2023-04-06T11:18:59;7.73;;;3.47;;
21843;SDS011;11084;52.482;9.108;2023-04-06T11:21:32;6.97;;;3.77;;
21843;SDS011;11084;52.482;9.108;2023-04-06T11:24:06;5.70;;;3.80;;
21843;SDS011;11084;52.482;9.108;2023-04-06T11:26:44;6.90;;;3.97;;
21843;SDS011;11084;52.482;9.108;2023-04-06T11:29:17;7.40;;;3.77;;
21843;SDS011;11084;52.482;9.108;2023-04-06T11:31:47;9.70;;;4.03;;
21843;SDS011;11084;52.482;9.108;2023-04-06T11:34:24;6.87;;;4.40;;
21843;SDS011;11084;52.482;9.108;2023-04-06T11:36:57;8.30;;;4.50;;
21843;SDS011;11084;52.482;9.108;2023-04-06T11:39:37;8.17;;;4.43;;
21843;SDS011;11084;52.482;9.108;2023-04-06T11:42:22;6.30;;;4.07;;
21843;SDS011;11084;52.482;9.108;2023-04-06T11:45:01;6.07;;;4.17;;
21843;SDS011;11084;52.482;9.108;2023-04-06T11:47:35;7.97;;;4.73;;
21843;SDS011;11084;52.482;9.108;2023-04-06T11:50:10;7.33;;;4.17;;
21843;SDS011;11084;52.482;9.108;2023-04-06T11:52:39;6.87;;;4.67;;
21843;SDS011;11084;52.482;9.108;2023-04-06T11:55:14;7.07;;;3.93;;
21843;SDS011;11084;52.482;9.108;2023-04-06T11:57:48;7.87;;;3.97;;
21843;SDS011;11084;52.482;9.108;2023-04-06T12:00:15;5.97;;;3.83;;
21843;SDS011;11084;52.482;9.108;2023-04-06T12:02:48;7.10;;;4.20;;
21843;SDS011;11084;52.482;9.108;2023-04-06T12:05:21;7.73;;;4.43;;
21843;SDS011;11084;52.482;9.108;2023-04-06T12:07:54;9.13;;;4.03;;
21843;SDS011;11084;52.482;9.108;2023-04-06T12:10:26;7.10;;;4.47;;
21843;SDS011;11084;52.482;9.108;2023-04-06T12:13:05;8.23;;;4.40;;
21843;SDS011;11084;52.482;9.108;2023-04-06T12:15:38;9.53;;;4.40;;
21843;SDS011;11084;52.482;9.108;2023-04-06T12:21:53;6.97;;;4.27;;
21843;SDS011;11084;52.482;9.108;2023-04-06T12:24:20;11.17;;;4.33;;
21843;SDS011;11084;52.482;9.108;2023-04-06T12:26:46;9.43;;;4.07;;
21843;SDS011;11084;52.482;9.108;2023-04-06T12:29:12;6.30;;;3.90;;
21843;SDS011;11084;52.482;9.108;2023-04-06T12:31:39;7.30;;;4.10;;
21843;SDS011;11084;52.482;9.108;2023-04-06T12:34:06;9.47;;;4.63;;
21843;SDS011;11084;52.482;9.108;2023-04-06T12:36:32;8.40;;;4.47;;
21843;SDS011;11084;52.482;9.108;2023-04-06T12:38:59;10.77;;;4.93;;
21843;SDS011;11084;52.482;9.108;2023-04-06T12:41:27;8.43;;;4.50;;
21843;SDS011;11084;52.482;9.108;2023-04-06T12:43:54;8.03;;;4.40;;
21843;SDS011;11084;52.482;9.108;2023-04-06T12:46:20;9.40;;;4.80;;
21843;SDS011;11084;52.482;9.108;2023-04-06T12:48:46;9.60;;;5.67;;
21843;SDS011;11084;52.482;9.108;2023-04-06T12:51:13;10.27;;;4.90;;
21843;SDS011;11084;52.482;9.108;2023-04-06T12:53:39;7.07;;;4.20;;
21843;SDS011;11084;52.482;9.108;2023-04-06T12:56:13;10.23;;;4.40;;
21843;SDS011;11084;52.482;9.108;2023-04-06T12:58:42;9.90;;;4.80;;
21843;SDS011;11084;52.482;9.108;2023-04-06T13:01:10;7.30;;;4.17;;
21843;SDS011;11084;52.482;9.108;2023-04-06T13:03:39;6.40;;;4.23;;
21843;SDS011;11084;52.482;9.108;2023-04-06T13:06:06;10.87;;;4.87;;
21843;SDS011;11084;52.482;9.108;2023-04-06T13:08:37;9.87;;;5.03;;
21843;SDS011;11084;52.482;9.108;2023-04-06T13:11:05;6.83;;;4.10;;
21843;SDS011;11084;52.482;9.108;2023-04-06T13:13:34;8.33;;;4.93;;
21843;SDS011;11084;52.482;9.108;2023-04-06T13:16:07;10.47;;;4.37;;
21843;SDS011;11084;52.482;9.108;2023-04-06T13:18:34;6.93;;;3.73;;
21843;SDS011;11084;52.482;9.108;2023-04-06T13:21:03;7.93;;;3.83;;
21843;SDS011;11084;52.482;9.108;2023-04-06T13:23:31;8.13;;;4.70;;
21843;SDS011;11084;52.482;9.108;2023-04-06T13:26:01;5.70;;;3.83;;
21843;SDS011;11084;52.482;9.108;2023-04-06T13:28:29;8.83;;;4.37;;
21843;SDS011;11084;52.482;9.108;2023-04-06T13:30:57;7.97;;;4.67;;
21843;SDS011;11084;52.482;9.108;2023-04-06T13:33:25;7.30;;;4.00;;
21843;SDS011;11084;52.482;9.108;2023-04-06T13:35:52;7.13;;;3.77;;
21843;SDS011;11084;52.482;9.108;2023-04-06T13:38:18;11.83;;;4.00;;
21843;SDS011;11084;52.482;9.108;2023-04-06T13:40:45;6.13;;;3.80;;
21843;SDS011;11084;52.482;9.108;2023-04-06T13:43:11;6.70;;;3.77;;
21843;SDS011;11084;52.482;9.108;2023-04-06T13:45:38;7.50;;;4.30;;
21843;SDS011;11084;52.482;9.108;2023-04-06T13:48:04;6.80;;;4.03;;
21843;SDS011;11084;52.482;9.108;2023-04-06T13:50:31;8.23;;;4.30;;
21843;SDS011;11084;52.482;9.108;2023-04-06T13:52:59;10.57;;;4.53;;
21843;SDS011;11084;52.482;9.108;2023-04-06T13:55:25;6.30;;;4.00;;
21843;SDS011;11084;52.482;9.108;2023-04-06T13:57:51;6.17;;;4.10;;
21843;SDS011;11084;52.482;9.108;2023-04-06T14:00:17;8.33;;;4.20;;
21843;SDS011;11084;52.482;9.108;2023-04-06T14:02:44;6.60;;;4.43;;
21843;SDS011;11084;52.482;9.108;2023-04-06T14:05:10;7.53;;;4.07;;
21843;SDS011;11084;52.482;9.108;2023-04-06T14:07:38;7.23;;;4.20;;
21843;SDS011;11084;52.482;9.108;2023-04-06T14:10:04;6.97;;;3.97;;
21843;SDS011;11084;52.482;9.108;2023-04-06T14:12:38;6.83;;;4.37;;
21843;SDS011;11084;52.482;9.108;2023-04-06T14:15:11;8.73;;;3.63;;
21843;SDS011;11084;52.482;9.108;2023-04-06T14:17:37;10.17;;;3.77;;
21843;SDS011;11084;52.482;9.108;2023-04-06T14:20:05;6.90;;;3.83;;
21843;SDS011;11084;52.482;9.108;2023-04-06T14:22:31;8.87;;;5.00;;
21843;SDS011;11084;52.482;9.108;2023-04-06T14:24:58;7.57;;;4.10;;
21843;SDS011;11084;52.482;9.108;2023-04-06T14:27:24;6.10;;;3.60;;
21843;SDS011;11084;52.482;9.108;2023-04-06T14:29:50;6.83;;;3.27;;
21843;SDS011;11084;52.482;9.108;2023-04-06T14:32:18;7.10;;;3.70;;
21843;SDS011;11084;52.482;9.108;2023-04-06T14:34:46;9.03;;;3.50;;
21843;SDS011;11084;52.482;9.108;2023-04-06T14:37:12;6.60;;;3.60;;
21843;SDS011;11084;52.482;9.108;2023-04-06T14:39:38;7.37;;;3.83;;
21843;SDS011;11084;52.482;9.108;2023-04-06T14:42:03;7.33;;;3.93;;
21843;SDS011;11084;52.482;9.108;2023-04-06T14:44:32;7.87;;;4.43;;
21843;SDS011;11084;52.482;9.108;2023-04-06T14:47:00;6.53;;;4.23;;
21843;SDS011;11084;52.482;9.108;2023-04-06T14:49:26;7.50;;;3.60;;
21843;SDS011;11084;52.482;9.108;2023-04-06T14:51:52;7.33;;;4.33;;
21843;SDS011;11084;52.482;9.108;2023-04-06T14:54:19;8.60;;;4.20;;
21843;SDS011;11084;52.482;9.108;2023-04-06T14:56:45;6.90;;;4.30;;
21843;SDS011;11084;52.482;9.108;2023-04-06T14:59:11;7.17;;;3.97;;
21843;SDS011;11084;52.482;9.108;2023-04-06T15:01:37;10.43;;;4.27;;
21843;SDS011;11084;52.482;9.108;2023-04-06T15:04:03;7.37;;;4.47;;
21843;SDS011;11084;52.482;9.108;2023-04-06T15:06:30;12.90;;;5.17;;
21843;SDS011;11084;52.482;9.108;2023-04-06T15:08:56;8.57;;;4.83;;
21843;SDS011;11084;52.482;9.108;2023-04-06T15:11:23;7.97;;;4.83;;
21843;SDS011;11084;52.482;9.108;2023-04-06T15:13:49;8.33;;;4.30;;